sensor_id;sensor_type;location;lat;lon;timestamp;P1;durP1;ratioP1;P2;durP2;ratioP2
2674;SDS011;1347;42.122;24.746;2023-02-26T00:00:23;22.90;;;16.20;;
2674;SDS011;1347;42.122;24.746;2023-02-26T00:02:50;29.10;;;17.17;;
2674;SDS011;1347;42.122;24.746;2023-02-26T00:05:17;22.53;;;17.77;;
2674;SDS011;1347;42.122;24.746;2023-02-26T00:07:44;26.00;;;16.57;;
2674;SDS011;1347;42.122;24.746;2023-02-26T00:10:11;23.37;;;16.57;;
2674;SDS011;1347;42.122;24.746;2023-02-26T00:12:42;25.27;;;16.17;;
2674;SDS011;1347;42.122;24.746;2023-02-26T00:15:10;20.30;;;15.80;;
2674;SDS011;1347;42.122;24.746;2023-02-26T00:17:41;23.20;;;15.50;;
2674;SDS011;1347;42.122;24.746;2023-02-26T00:20:14;19.03;;;14.17;;
2674;SDS011;1347;42.122;24.746;2023-02-26T00:22:42;20.13;;;14.43;;
2674;SDS011;1347;42.122;24.746;2023-02-26T00:25:11;20.70;;;13.87;;
2674;SDS011;1347;42.122;24.746;2023-02-26T00:27:39;21.37;;;13.63;;
2674;SDS011;1347;42.122;24.746;2023-02-26T00:30:08;25.17;;;13.50;;
2674;SDS011;1347;42.122;24.746;2023-02-26T00:32:36;17.60;;;12.80;;
2674;SDS011;1347;42.122;24.746;2023-02-26T00:35:05;21.63;;;14.10;;
2674;SDS011;1347;42.122;24.746;2023-02-26T00:37:37;20.37;;;13.23;;
2674;SDS011;1347;42.122;24.746;2023-02-26T00:40:17;19.80;;;14.20;;
2674;SDS011;1347;42.122;24.746;2023-02-26T00:42:53;25.80;;;13.80;;
2674;SDS011;1347;42.122;24.746;2023-02-26T00:45:22;18.37;;;14.50;;
2674;SDS011;1347;42.122;24.746;2023-02-26T00:47:50;22.53;;;13.73;;
2674;SDS011;1347;42.122;24.746;2023-02-26T00:50:22;21.43;;;14.20;;
2674;SDS011;1347;42.122;24.746;2023-02-26T00:52:52;20.03;;;11.80;;
2674;SDS011;1347;42.122;24.746;2023-02-26T00:55:27;23.23;;;15.07;;
2674;SDS011;1347;42.122;24.746;2023-02-26T00:57:54;22.83;;;13.60;;
2674;SDS011;1347;42.122;24.746;2023-02-26T01:00:23;17.80;;;13.60;;
2674;SDS011;1347;42.122;24.746;2023-02-26T01:02:50;23.43;;;13.57;;
2674;SDS011;1347;42.122;24.746;2023-02-26T01:05:18;21.03;;;12.80;;
2674;SDS011;1347;42.122;24.746;2023-02-26T01:07:46;19.50;;;13.70;;
2674;SDS011;1347;42.122;24.746;2023-02-26T01:10:20;16.17;;;11.93;;
2674;SDS011;1347;42.122;24.746;2023-02-26T01:12:47;19.00;;;12.40;;
2674;SDS011;1347;42.122;24.746;2023-02-26T01:15:15;19.60;;;11.60;;
2674;SDS011;1347;42.122;24.746;2023-02-26T01:17:44;16.13;;;12.03;;
2674;SDS011;1347;42.122;24.746;2023-02-26T01:20:18;19.70;;;12.23;;
2674;SDS011;1347;42.122;24.746;2023-02-26T01:22:49;22.10;;;13.60;;
2674;SDS011;1347;42.122;24.746;2023-02-26T01:25:20;25.73;;;12.90;;
2674;SDS011;1347;42.122;24.746;2023-02-26T01:27:51;26.03;;;12.87;;
2674;SDS011;1347;42.122;24.746;2023-02-26T01:30:20;22.27;;;12.17;;
2674;SDS011;1347;42.122;24.746;2023-02-26T01:32:50;18.73;;;12.07;;
2674;SDS011;1347;42.122;24.746;2023-02-26T01:35:28;29.47;;;13.37;;
2674;SDS011;1347;42.122;24.746;2023-02-26T01:38:12;18.03;;;11.50;;
2674;SDS011;1347;42.122;24.746;2023-02-26T01:43:49;19.83;;;12.00;;
2674;SDS011;1347;42.122;24.746;2023-02-26T01:46:25;23.90;;;13.33;;
2674;SDS011;1347;42.122;24.746;2023-02-26T01:48:58;20.77;;;12.80;;
2674;SDS011;1347;42.122;24.746;2023-02-26T01:51:46;19.03;;;13.60;;
2674;SDS011;1347;42.122;24.746;2023-02-26T01:54:15;20.10;;;13.87;;
2674;SDS011;1347;42.122;24.746;2023-02-26T01:56:46;18.67;;;12.87;;
2674;SDS011;1347;42.122;24.746;2023-02-26T01:59:16;19.53;;;12.67;;
2674;SDS011;1347;42.122;24.746;2023-02-26T02:01:48;27.33;;;13.80;;
2674;SDS011;1347;42.122;24.746;2023-02-26T02:04:18;19.80;;;13.03;;
2674;SDS011;1347;42.122;24.746;2023-02-26T02:06:46;23.03;;;12.37;;
2674;SDS011;1347;42.122;24.746;2023-02-26T02:09:13;19.67;;;12.73;;
2674;SDS011;1347;42.122;24.746;2023-02-26T02:11:45;21.43;;;13.03;;
2674;SDS011;1347;42.122;24.746;2023-02-26T02:14:21;22.60;;;13.00;;
2674;SDS011;1347;42.122;24.746;2023-02-26T02:16:54;22.00;;;11.60;;
2674;SDS011;1347;42.122;24.746;2023-02-26T02:22:50;16.90;;;12.37;;
2674;SDS011;1347;42.122;24.746;2023-02-26T02:25:30;20.80;;;11.13;;
2674;SDS011;1347;42.122;24.746;2023-02-26T02:28:08;16.50;;;10.80;;
2674;SDS011;1347;42.122;24.746;2023-02-26T02:30:58;12.53;;;8.60;;
2674;SDS011;1347;42.122;24.746;2023-02-26T02:33:32;18.50;;;6.63;;
2674;SDS011;1347;42.122;24.746;2023-02-26T02:36:02;13.33;;;5.53;;
2674;SDS011;1347;42.122;24.746;2023-02-26T02:38:37;16.07;;;5.33;;
2674;SDS011;1347;42.122;24.746;2023-02-26T02:41:09;16.87;;;5.17;;
2674;SDS011;1347;42.122;24.746;2023-02-26T02:43:38;16.30;;;6.17;;
2674;SDS011;1347;42.122;24.746;2023-02-26T02:46:10;23.03;;;7.20;;
2674;SDS011;1347;42.122;24.746;2023-02-26T02:48:42;15.50;;;6.67;;
2674;SDS011;1347;42.122;24.746;2023-02-26T02:51:13;16.77;;;6.90;;
2674;SDS011;1347;42.122;24.746;2023-02-26T02:53:48;16.63;;;6.50;;
2674;SDS011;1347;42.122;24.746;2023-02-26T02:56:18;18.30;;;6.40;;
2674;SDS011;1347;42.122;24.746;2023-02-26T02:58:50;13.23;;;6.87;;
2674;SDS011;1347;42.122;24.746;2023-02-26T03:01:24;15.10;;;6.67;;
2674;SDS011;1347;42.122;24.746;2023-02-26T03:03:54;19.97;;;6.50;;
2674;SDS011;1347;42.122;24.746;2023-02-26T03:06:25;16.53;;;6.23;;
2674;SDS011;1347;42.122;24.746;2023-02-26T03:08:53;12.63;;;7.43;;
2674;SDS011;1347;42.122;24.746;2023-02-26T03:11:20;15.53;;;6.80;;
2674;SDS011;1347;42.122;24.746;2023-02-26T03:13:47;19.37;;;7.13;;
2674;SDS011;1347;42.122;24.746;2023-02-26T03:16:21;12.97;;;7.77;;
2674;SDS011;1347;42.122;24.746;2023-02-26T03:19:13;17.53;;;8.07;;
2674;SDS011;1347;42.122;24.746;2023-02-26T03:21:47;13.93;;;8.77;;
2674;SDS011;1347;42.122;24.746;2023-02-26T03:24:21;19.27;;;9.60;;
2674;SDS011;1347;42.122;24.746;2023-02-26T03:26:56;18.13;;;8.13;;
2674;SDS011;1347;42.122;24.746;2023-02-26T03:29:27;13.20;;;8.27;;
2674;SDS011;1347;42.122;24.746;2023-02-26T03:32:02;17.30;;;8.17;;
2674;SDS011;1347;42.122;24.746;2023-02-26T03:34:36;16.27;;;8.90;;
2674;SDS011;1347;42.122;24.746;2023-02-26T03:37:10;12.97;;;8.07;;
2674;SDS011;1347;42.122;24.746;2023-02-26T03:39:44;16.00;;;8.17;;
2674;SDS011;1347;42.122;24.746;2023-02-26T03:42:14;18.07;;;8.47;;
2674;SDS011;1347;42.122;24.746;2023-02-26T03:44:49;18.67;;;8.07;;
2674;SDS011;1347;42.122;24.746;2023-02-26T03:47:19;15.43;;;8.40;;
2674;SDS011;1347;42.122;24.746;2023-02-26T03:49:51;17.60;;;8.33;;
2674;SDS011;1347;42.122;24.746;2023-02-26T03:52:21;22.67;;;8.67;;
2674;SDS011;1347;42.122;24.746;2023-02-26T03:54:52;17.73;;;8.90;;
2674;SDS011;1347;42.122;24.746;2023-02-26T03:57:23;17.80;;;9.00;;
2674;SDS011;1347;42.122;24.746;2023-02-26T03:59:50;23.00;;;10.03;;
2674;SDS011;1347;42.122;24.746;2023-02-26T04:02:17;13.17;;;8.67;;
2674;SDS011;1347;42.122;24.746;2023-02-26T04:04:50;20.73;;;9.60;;
2674;SDS011;1347;42.122;24.746;2023-02-26T04:07:19;15.10;;;9.30;;
2674;SDS011;1347;42.122;24.746;2023-02-26T04:09:48;17.17;;;10.00;;
2674;SDS011;1347;42.122;24.746;2023-02-26T04:12:19;24.77;;;10.17;;
2674;SDS011;1347;42.122;24.746;2023-02-26T04:14:47;22.73;;;10.90;;
2674;SDS011;1347;42.122;24.746;2023-02-26T04:17:14;18.60;;;10.33;;
2674;SDS011;1347;42.122;24.746;2023-02-26T04:19:41;22.13;;;9.50;;
2674;SDS011;1347;42.122;24.746;2023-02-26T04:22:09;19.00;;;10.63;;
2674;SDS011;1347;42.122;24.746;2023-02-26T04:24:36;20.07;;;9.67;;
2674;SDS011;1347;42.122;24.746;2023-02-26T04:27:03;15.30;;;9.00;;
2674;SDS011;1347;42.122;24.746;2023-02-26T04:29:30;26.57;;;9.63;;
2674;SDS011;1347;42.122;24.746;2023-02-26T04:31:57;19.40;;;10.80;;
2674;SDS011;1347;42.122;24.746;2023-02-26T04:34:25;21.23;;;10.00;;
2674;SDS011;1347;42.122;24.746;2023-02-26T04:36:51;20.83;;;11.00;;
2674;SDS011;1347;42.122;24.746;2023-02-26T04:39:20;15.80;;;9.27;;
2674;SDS011;1347;42.122;24.746;2023-02-26T04:41:47;19.40;;;9.87;;
2674;SDS011;1347;42.122;24.746;2023-02-26T04:44:14;16.33;;;11.20;;
2674;SDS011;1347;42.122;24.746;2023-02-26T04:46:40;15.00;;;9.57;;
2674;SDS011;1347;42.122;24.746;2023-02-26T04:49:07;26.37;;;10.30;;
2674;SDS011;1347;42.122;24.746;2023-02-26T04:51:34;25.70;;;10.80;;
2674;SDS011;1347;42.122;24.746;2023-02-26T04:54:01;19.20;;;10.50;;
2674;SDS011;1347;42.122;24.746;2023-02-26T04:56:30;27.90;;;11.70;;
2674;SDS011;1347;42.122;24.746;2023-02-26T04:58:57;24.10;;;9.93;;
2674;SDS011;1347;42.122;24.746;2023-02-26T05:01:24;21.40;;;10.47;;
2674;SDS011;1347;42.122;24.746;2023-02-26T05:03:51;35.17;;;11.30;;
2674;SDS011;1347;42.122;24.746;2023-02-26T05:06:18;17.57;;;9.03;;
2674;SDS011;1347;42.122;24.746;2023-02-26T05:08:45;14.10;;;9.53;;
2674;SDS011;1347;42.122;24.746;2023-02-26T05:11:12;24.37;;;12.37;;
2674;SDS011;1347;42.122;24.746;2023-02-26T05:13:40;25.17;;;13.17;;
2674;SDS011;1347;42.122;24.746;2023-02-26T05:16:07;20.80;;;10.80;;
2674;SDS011;1347;42.122;24.746;2023-02-26T05:18:34;21.20;;;8.90;;
2674;SDS011;1347;42.122;24.746;2023-02-26T05:21:02;19.57;;;10.10;;
2674;SDS011;1347;42.122;24.746;2023-02-26T05:23:29;18.03;;;8.57;;
2674;SDS011;1347;42.122;24.746;2023-02-26T05:25:56;21.00;;;11.33;;
2674;SDS011;1347;42.122;24.746;2023-02-26T05:28:24;14.13;;;9.67;;
2674;SDS011;1347;42.122;24.746;2023-02-26T05:30:54;17.67;;;10.43;;
2674;SDS011;1347;42.122;24.746;2023-02-26T05:33:21;15.80;;;8.90;;
2674;SDS011;1347;42.122;24.746;2023-02-26T05:35:48;22.63;;;9.90;;
2674;SDS011;1347;42.122;24.746;2023-02-26T05:38:15;28.63;;;10.43;;
2674;SDS011;1347;42.122;24.746;2023-02-26T05:40:42;21.00;;;11.10;;
2674;SDS011;1347;42.122;24.746;2023-02-26T05:43:09;20.07;;;11.13;;
2674;SDS011;1347;42.122;24.746;2023-02-26T05:45:36;25.63;;;9.00;;
2674;SDS011;1347;42.122;24.746;2023-02-26T05:48:04;15.97;;;8.33;;
2674;SDS011;1347;42.122;24.746;2023-02-26T05:50:31;20.00;;;10.20;;
2674;SDS011;1347;42.122;24.746;2023-02-26T05:52:58;22.20;;;9.80;;
2674;SDS011;1347;42.122;24.746;2023-02-26T05:55:25;18.53;;;9.60;;
2674;SDS011;1347;42.122;24.746;2023-02-26T05:57:52;13.67;;;9.40;;
2674;SDS011;1347;42.122;24.746;2023-02-26T06:00:19;22.50;;;10.90;;
2674;SDS011;1347;42.122;24.746;2023-02-26T06:02:46;20.03;;;12.27;;
2674;SDS011;1347;42.122;24.746;2023-02-26T06:05:14;15.40;;;9.77;;
2674;SDS011;1347;42.122;24.746;2023-02-26T06:07:41;29.77;;;15.00;;
2674;SDS011;1347;42.122;24.746;2023-02-26T06:10:09;26.20;;;11.90;;
2674;SDS011;1347;42.122;24.746;2023-02-26T06:12:37;21.90;;;10.93;;
2674;SDS011;1347;42.122;24.746;2023-02-26T06:15:04;17.13;;;10.67;;
2674;SDS011;1347;42.122;24.746;2023-02-26T06:17:32;17.93;;;9.77;;
2674;SDS011;1347;42.122;24.746;2023-02-26T06:20:00;34.67;;;11.87;;
2674;SDS011;1347;42.122;24.746;2023-02-26T06:22:28;25.47;;;11.47;;
2674;SDS011;1347;42.122;24.746;2023-02-26T06:24:56;31.43;;;12.27;;
2674;SDS011;1347;42.122;24.746;2023-02-26T06:27:23;21.07;;;11.37;;
2674;SDS011;1347;42.122;24.746;2023-02-26T06:29:50;24.30;;;11.50;;
2674;SDS011;1347;42.122;24.746;2023-02-26T06:32:16;22.60;;;9.70;;
2674;SDS011;1347;42.122;24.746;2023-02-26T06:34:43;21.53;;;10.63;;
2674;SDS011;1347;42.122;24.746;2023-02-26T06:37:10;14.43;;;8.97;;
2674;SDS011;1347;42.122;24.746;2023-02-26T06:39:39;16.70;;;8.17;;
2674;SDS011;1347;42.122;24.746;2023-02-26T06:42:05;19.30;;;10.10;;
2674;SDS011;1347;42.122;24.746;2023-02-26T06:44:32;25.77;;;11.63;;
2674;SDS011;1347;42.122;24.746;2023-02-26T06:46:59;21.00;;;12.37;;
2674;SDS011;1347;42.122;24.746;2023-02-26T06:49:26;28.67;;;12.47;;
2674;SDS011;1347;42.122;24.746;2023-02-26T06:51:53;19.93;;;12.67;;
2674;SDS011;1347;42.122;24.746;2023-02-26T06:54:20;22.63;;;12.50;;
2674;SDS011;1347;42.122;24.746;2023-02-26T06:56:49;19.40;;;11.57;;
2674;SDS011;1347;42.122;24.746;2023-02-26T06:59:17;30.63;;;14.30;;
2674;SDS011;1347;42.122;24.746;2023-02-26T07:01:44;29.33;;;14.60;;
2674;SDS011;1347;42.122;24.746;2023-02-26T07:04:11;27.37;;;13.77;;
2674;SDS011;1347;42.122;24.746;2023-02-26T07:06:37;26.00;;;9.67;;
2674;SDS011;1347;42.122;24.746;2023-02-26T07:09:04;24.47;;;9.40;;
2674;SDS011;1347;42.122;24.746;2023-02-26T07:11:31;23.77;;;9.40;;
2674;SDS011;1347;42.122;24.746;2023-02-26T07:14:00;21.70;;;8.23;;
2674;SDS011;1347;42.122;24.746;2023-02-26T07:16:27;17.17;;;8.60;;
2674;SDS011;1347;42.122;24.746;2023-02-26T07:18:54;18.60;;;8.03;;
2674;SDS011;1347;42.122;24.746;2023-02-26T07:21:20;24.40;;;9.00;;
2674;SDS011;1347;42.122;24.746;2023-02-26T07:23:47;30.20;;;10.47;;
2674;SDS011;1347;42.122;24.746;2023-02-26T07:26:14;18.53;;;7.40;;
2674;SDS011;1347;42.122;24.746;2023-02-26T07:28:42;16.60;;;7.57;;
2674;SDS011;1347;42.122;24.746;2023-02-26T07:31:10;24.47;;;8.27;;
2674;SDS011;1347;42.122;24.746;2023-02-26T07:33:37;25.47;;;8.73;;
2674;SDS011;1347;42.122;24.746;2023-02-26T07:36:05;22.93;;;8.80;;
2674;SDS011;1347;42.122;24.746;2023-02-26T07:38:32;20.43;;;7.03;;
2674;SDS011;1347;42.122;24.746;2023-02-26T07:40:59;28.43;;;7.97;;
2674;SDS011;1347;42.122;24.746;2023-02-26T07:43:26;20.20;;;7.43;;
2674;SDS011;1347;42.122;24.746;2023-02-26T07:45:53;17.13;;;7.30;;
2674;SDS011;1347;42.122;24.746;2023-02-26T07:48:21;23.10;;;8.70;;
2674;SDS011;1347;42.122;24.746;2023-02-26T07:50:50;17.53;;;7.77;;
2674;SDS011;1347;42.122;24.746;2023-02-26T07:53:17;23.57;;;8.80;;
2674;SDS011;1347;42.122;24.746;2023-02-26T07:55:44;15.07;;;7.63;;
2674;SDS011;1347;42.122;24.746;2023-02-26T07:58:11;17.97;;;7.60;;
2674;SDS011;1347;42.122;24.746;2023-02-26T08:00:38;25.07;;;9.03;;
2674;SDS011;1347;42.122;24.746;2023-02-26T08:03:05;20.70;;;8.90;;
2674;SDS011;1347;42.122;24.746;2023-02-26T08:05:34;32.50;;;9.63;;
2674;SDS011;1347;42.122;24.746;2023-02-26T08:08:01;21.90;;;8.00;;
2674;SDS011;1347;42.122;24.746;2023-02-26T08:10:28;26.23;;;8.97;;
2674;SDS011;1347;42.122;24.746;2023-02-26T08:12:55;24.63;;;9.73;;
2674;SDS011;1347;42.122;24.746;2023-02-26T08:15:22;20.10;;;8.57;;
2674;SDS011;1347;42.122;24.746;2023-02-26T08:17:50;26.07;;;9.27;;
2674;SDS011;1347;42.122;24.746;2023-02-26T08:20:17;17.80;;;8.67;;
2674;SDS011;1347;42.122;24.746;2023-02-26T08:22:46;20.97;;;8.53;;
2674;SDS011;1347;42.122;24.746;2023-02-26T08:25:13;20.67;;;9.40;;
2674;SDS011;1347;42.122;24.746;2023-02-26T08:27:40;22.67;;;8.63;;
2674;SDS011;1347;42.122;24.746;2023-02-26T08:30:07;24.83;;;8.27;;
2674;SDS011;1347;42.122;24.746;2023-02-26T08:32:36;28.40;;;6.47;;
2674;SDS011;1347;42.122;24.746;2023-02-26T08:35:06;23.30;;;8.00;;
2674;SDS011;1347;42.122;24.746;2023-02-26T08:37:34;29.97;;;9.43;;
2674;SDS011;1347;42.122;24.746;2023-02-26T08:40:02;15.57;;;7.27;;
2674;SDS011;1347;42.122;24.746;2023-02-26T08:42:30;18.40;;;7.30;;
2674;SDS011;1347;42.122;24.746;2023-02-26T08:44:57;18.03;;;7.30;;
2674;SDS011;1347;42.122;24.746;2023-02-26T08:47:23;32.97;;;7.63;;
2674;SDS011;1347;42.122;24.746;2023-02-26T08:49:50;21.50;;;7.70;;
2674;SDS011;1347;42.122;24.746;2023-02-26T08:52:17;43.87;;;8.00;;
2674;SDS011;1347;42.122;24.746;2023-02-26T08:54:44;25.20;;;7.30;;
2674;SDS011;1347;42.122;24.746;2023-02-26T08:57:13;22.03;;;6.87;;
2674;SDS011;1347;42.122;24.746;2023-02-26T08:59:40;20.60;;;7.90;;
2674;SDS011;1347;42.122;24.746;2023-02-26T09:02:08;18.73;;;7.17;;
2674;SDS011;1347;42.122;24.746;2023-02-26T09:04:35;20.90;;;6.30;;
2674;SDS011;1347;42.122;24.746;2023-02-26T09:07:02;20.10;;;6.57;;
2674;SDS011;1347;42.122;24.746;2023-02-26T09:09:29;21.00;;;7.77;;
2674;SDS011;1347;42.122;24.746;2023-02-26T09:11:56;18.80;;;6.63;;
2674;SDS011;1347;42.122;24.746;2023-02-26T09:14:25;15.73;;;6.77;;
2674;SDS011;1347;42.122;24.746;2023-02-26T09:16:52;25.63;;;6.73;;
2674;SDS011;1347;42.122;24.746;2023-02-26T09:19:19;17.10;;;7.17;;
2674;SDS011;1347;42.122;24.746;2023-02-26T09:21:46;19.43;;;7.90;;
2674;SDS011;1347;42.122;24.746;2023-02-26T09:24:12;17.23;;;6.33;;
2674;SDS011;1347;42.122;24.746;2023-02-26T09:26:39;23.53;;;7.03;;
2674;SDS011;1347;42.122;24.746;2023-02-26T09:29:06;19.63;;;6.83;;
2674;SDS011;1347;42.122;24.746;2023-02-26T09:31:35;17.47;;;6.97;;
2674;SDS011;1347;42.122;24.746;2023-02-26T09:34:02;22.20;;;7.60;;
2674;SDS011;1347;42.122;24.746;2023-02-26T09:36:29;18.30;;;6.87;;
2674;SDS011;1347;42.122;24.746;2023-02-26T09:38:56;21.93;;;8.60;;
2674;SDS011;1347;42.122;24.746;2023-02-26T09:41:25;20.40;;;7.50;;
2674;SDS011;1347;42.122;24.746;2023-02-26T09:44:00;18.83;;;7.90;;
2674;SDS011;1347;42.122;24.746;2023-02-26T09:46:39;17.50;;;7.07;;
2674;SDS011;1347;42.122;24.746;2023-02-26T09:49:14;24.83;;;7.80;;
2674;SDS011;1347;42.122;24.746;2023-02-26T09:51:45;25.73;;;7.13;;
2674;SDS011;1347;42.122;24.746;2023-02-26T09:54:17;21.60;;;6.93;;
2674;SDS011;1347;42.122;24.746;2023-02-26T09:56:47;22.80;;;7.37;;
2674;SDS011;1347;42.122;24.746;2023-02-26T09:59:16;16.70;;;6.53;;
2674;SDS011;1347;42.122;24.746;2023-02-26T10:01:47;20.43;;;6.33;;
2674;SDS011;1347;42.122;24.746;2023-02-26T10:04:26;14.97;;;5.67;;
2674;SDS011;1347;42.122;24.746;2023-02-26T10:07:11;19.20;;;6.93;;
2674;SDS011;1347;42.122;24.746;2023-02-26T10:09:47;23.13;;;6.60;;
2674;SDS011;1347;42.122;24.746;2023-02-26T10:12:24;28.10;;;6.53;;
2674;SDS011;1347;42.122;24.746;2023-02-26T10:14:54;14.77;;;6.10;;
2674;SDS011;1347;42.122;24.746;2023-02-26T10:17:28;17.10;;;6.10;;
2674;SDS011;1347;42.122;24.746;2023-02-26T10:20:01;17.43;;;5.83;;
2674;SDS011;1347;42.122;24.746;2023-02-26T10:22:35;11.03;;;5.60;;
2674;SDS011;1347;42.122;24.746;2023-02-26T10:25:08;25.43;;;6.40;;
2674;SDS011;1347;42.122;24.746;2023-02-26T10:27:44;24.43;;;5.80;;
2674;SDS011;1347;42.122;24.746;2023-02-26T10:30:20;20.63;;;7.03;;
2674;SDS011;1347;42.122;24.746;2023-02-26T10:32:57;23.33;;;6.73;;
2674;SDS011;1347;42.122;24.746;2023-02-26T10:35:35;18.33;;;5.37;;
2674;SDS011;1347;42.122;24.746;2023-02-26T10:38:19;15.70;;;6.80;;
2674;SDS011;1347;42.122;24.746;2023-02-26T10:40:52;20.53;;;5.93;;
2674;SDS011;1347;42.122;24.746;2023-02-26T10:43:26;18.93;;;5.77;;
2674;SDS011;1347;42.122;24.746;2023-02-26T10:46:00;24.10;;;6.37;;
2674;SDS011;1347;42.122;24.746;2023-02-26T10:48:41;20.83;;;6.63;;
2674;SDS011;1347;42.122;24.746;2023-02-26T10:51:21;16.30;;;5.67;;
2674;SDS011;1347;42.122;24.746;2023-02-26T10:53:50;18.87;;;6.20;;
2674;SDS011;1347;42.122;24.746;2023-02-26T10:56:23;14.67;;;5.50;;
2674;SDS011;1347;42.122;24.746;2023-02-26T10:58:53;15.43;;;5.60;;
2674;SDS011;1347;42.122;24.746;2023-02-26T11:01:20;15.43;;;5.73;;
2674;SDS011;1347;42.122;24.746;2023-02-26T11:03:54;23.20;;;7.70;;
2674;SDS011;1347;42.122;24.746;2023-02-26T11:06:26;13.80;;;5.60;;
2674;SDS011;1347;42.122;24.746;2023-02-26T11:08:56;17.03;;;6.20;;
2674;SDS011;1347;42.122;24.746;2023-02-26T11:11:34;15.37;;;5.37;;
2674;SDS011;1347;42.122;24.746;2023-02-26T11:14:05;20.50;;;6.07;;
2674;SDS011;1347;42.122;24.746;2023-02-26T11:16:33;16.10;;;5.30;;
2674;SDS011;1347;42.122;24.746;2023-02-26T11:19:02;11.57;;;5.53;;
2674;SDS011;1347;42.122;24.746;2023-02-26T11:21:33;18.00;;;4.90;;
2674;SDS011;1347;42.122;24.746;2023-02-26T11:24:05;25.03;;;5.93;;
2674;SDS011;1347;42.122;24.746;2023-02-26T11:26:38;19.10;;;5.03;;
2674;SDS011;1347;42.122;24.746;2023-02-26T11:29:12;19.40;;;6.83;;
2674;SDS011;1347;42.122;24.746;2023-02-26T11:31:40;17.60;;;5.97;;
2674;SDS011;1347;42.122;24.746;2023-02-26T11:34:10;15.43;;;5.97;;
2674;SDS011;1347;42.122;24.746;2023-02-26T11:36:38;31.53;;;6.57;;
2674;SDS011;1347;42.122;24.746;2023-02-26T11:39:07;18.43;;;5.87;;
2674;SDS011;1347;42.122;24.746;2023-02-26T11:41:41;25.33;;;7.27;;
2674;SDS011;1347;42.122;24.746;2023-02-26T11:44:11;12.60;;;6.40;;
2674;SDS011;1347;42.122;24.746;2023-02-26T11:46:43;16.83;;;6.27;;
2674;SDS011;1347;42.122;24.746;2023-02-26T11:49:15;25.43;;;7.50;;
2674;SDS011;1347;42.122;24.746;2023-02-26T11:51:45;18.13;;;5.70;;
2674;SDS011;1347;42.122;24.746;2023-02-26T11:54:19;14.57;;;6.23;;
2674;SDS011;1347;42.122;24.746;2023-02-26T11:56:47;24.47;;;6.90;;
2674;SDS011;1347;42.122;24.746;2023-02-26T11:59:16;19.77;;;6.30;;
2674;SDS011;1347;42.122;24.746;2023-02-26T12:01:45;14.77;;;6.40;;
2674;SDS011;1347;42.122;24.746;2023-02-26T12:04:15;16.57;;;6.77;;
2674;SDS011;1347;42.122;24.746;2023-02-26T12:06:44;21.93;;;7.80;;
2674;SDS011;1347;42.122;24.746;2023-02-26T12:09:14;19.77;;;6.53;;
2674;SDS011;1347;42.122;24.746;2023-02-26T12:11:50;17.03;;;6.13;;
2674;SDS011;1347;42.122;24.746;2023-02-26T12:14:43;17.57;;;6.20;;
2674;SDS011;1347;42.122;24.746;2023-02-26T12:17:28;17.53;;;9.10;;
2674;SDS011;1347;42.122;24.746;2023-02-26T12:20:06;22.83;;;7.13;;
2674;SDS011;1347;42.122;24.746;2023-02-26T12:22:47;14.60;;;6.67;;
2674;SDS011;1347;42.122;24.746;2023-02-26T12:28:34;15.80;;;6.70;;
2674;SDS011;1347;42.122;24.746;2023-02-26T12:37:35;21.63;;;8.53;;
2674;SDS011;1347;42.122;24.746;2023-02-26T12:40:14;14.80;;;6.80;;
2674;SDS011;1347;42.122;24.746;2023-02-26T12:42:56;12.47;;;6.03;;
2674;SDS011;1347;42.122;24.746;2023-02-26T12:45:34;17.67;;;5.93;;
2674;SDS011;1347;42.122;24.746;2023-02-26T12:48:13;21.13;;;5.87;;
2674;SDS011;1347;42.122;24.746;2023-02-26T12:51:01;11.83;;;5.10;;
2674;SDS011;1347;42.122;24.746;2023-02-26T12:59:38;15.00;;;4.57;;
2674;SDS011;1347;42.122;24.746;2023-02-26T13:05:26;13.07;;;4.27;;
2674;SDS011;1347;42.122;24.746;2023-02-26T13:08:09;18.97;;;6.13;;
2674;SDS011;1347;42.122;24.746;2023-02-26T13:10:43;16.03;;;5.60;;
2674;SDS011;1347;42.122;24.746;2023-02-26T13:13:32;16.20;;;5.97;;
2674;SDS011;1347;42.122;24.746;2023-02-26T13:16:27;12.30;;;5.97;;
2674;SDS011;1347;42.122;24.746;2023-02-26T13:19:04;16.43;;;6.13;;
2674;SDS011;1347;42.122;24.746;2023-02-26T13:21:40;18.00;;;8.60;;
2674;SDS011;1347;42.122;24.746;2023-02-26T13:24:13;16.23;;;5.10;;
2674;SDS011;1347;42.122;24.746;2023-02-26T13:26:46;8.60;;;4.57;;
2674;SDS011;1347;42.122;24.746;2023-02-26T13:29:16;12.53;;;4.47;;
2674;SDS011;1347;42.122;24.746;2023-02-26T13:31:46;14.07;;;6.10;;
2674;SDS011;1347;42.122;24.746;2023-02-26T13:34:19;12.33;;;5.23;;
2674;SDS011;1347;42.122;24.746;2023-02-26T13:36:51;22.97;;;5.97;;
2674;SDS011;1347;42.122;24.746;2023-02-26T13:39:31;18.50;;;5.43;;
2674;SDS011;1347;42.122;24.746;2023-02-26T13:42:10;24.03;;;6.13;;
2674;SDS011;1347;42.122;24.746;2023-02-26T13:44:48;17.30;;;5.43;;
2674;SDS011;1347;42.122;24.746;2023-02-26T13:47:28;26.87;;;5.50;;
2674;SDS011;1347;42.122;24.746;2023-02-26T13:50:13;19.03;;;6.27;;
2674;SDS011;1347;42.122;24.746;2023-02-26T13:52:49;16.30;;;5.47;;
2674;SDS011;1347;42.122;24.746;2023-02-26T13:55:34;11.60;;;4.63;;
2674;SDS011;1347;42.122;24.746;2023-02-26T13:58:15;19.40;;;6.77;;
2674;SDS011;1347;42.122;24.746;2023-02-26T14:00:46;12.97;;;5.90;;
2674;SDS011;1347;42.122;24.746;2023-02-26T14:03:30;16.80;;;6.23;;
2674;SDS011;1347;42.122;24.746;2023-02-26T14:06:09;14.80;;;5.57;;
2674;SDS011;1347;42.122;24.746;2023-02-26T14:08:50;13.20;;;5.93;;
2674;SDS011;1347;42.122;24.746;2023-02-26T14:11:31;14.37;;;6.00;;
2674;SDS011;1347;42.122;24.746;2023-02-26T14:14:10;15.73;;;5.00;;
2674;SDS011;1347;42.122;24.746;2023-02-26T14:16:51;12.10;;;4.73;;
2674;SDS011;1347;42.122;24.746;2023-02-26T14:19:22;12.60;;;6.10;;
2674;SDS011;1347;42.122;24.746;2023-02-26T14:21:53;15.47;;;5.50;;
2674;SDS011;1347;42.122;24.746;2023-02-26T14:24:24;17.80;;;5.20;;
2674;SDS011;1347;42.122;24.746;2023-02-26T14:27:07;9.67;;;4.60;;
2674;SDS011;1347;42.122;24.746;2023-02-26T14:29:59;12.70;;;4.70;;
2674;SDS011;1347;42.122;24.746;2023-02-26T14:32:32;17.77;;;5.23;;
2674;SDS011;1347;42.122;24.746;2023-02-26T14:35:02;13.50;;;5.80;;
2674;SDS011;1347;42.122;24.746;2023-02-26T14:37:31;13.80;;;5.50;;
2674;SDS011;1347;42.122;24.746;2023-02-26T14:40:03;12.73;;;4.50;;
2674;SDS011;1347;42.122;24.746;2023-02-26T14:42:34;16.13;;;5.83;;
2674;SDS011;1347;42.122;24.746;2023-02-26T14:45:08;13.33;;;4.80;;
2674;SDS011;1347;42.122;24.746;2023-02-26T14:47:45;16.37;;;4.63;;
2674;SDS011;1347;42.122;24.746;2023-02-26T14:50:15;16.10;;;5.10;;
2674;SDS011;1347;42.122;24.746;2023-02-26T14:52:51;16.23;;;6.40;;
2674;SDS011;1347;42.122;24.746;2023-02-26T14:55:38;12.80;;;6.23;;
2674;SDS011;1347;42.122;24.746;2023-02-26T14:58:24;16.70;;;6.50;;
2674;SDS011;1347;42.122;24.746;2023-02-26T15:01:04;12.23;;;5.80;;
2674;SDS011;1347;42.122;24.746;2023-02-26T15:03:44;15.60;;;5.50;;
2674;SDS011;1347;42.122;24.746;2023-02-26T15:09:21;16.33;;;5.80;;
2674;SDS011;1347;42.122;24.746;2023-02-26T15:11:56;16.47;;;6.27;;
2674;SDS011;1347;42.122;24.746;2023-02-26T15:14:39;22.97;;;6.83;;
2674;SDS011;1347;42.122;24.746;2023-02-26T15:17:20;12.40;;;7.00;;
2674;SDS011;1347;42.122;24.746;2023-02-26T15:20:03;15.03;;;8.70;;
2674;SDS011;1347;42.122;24.746;2023-02-26T15:22:42;20.53;;;8.70;;
2674;SDS011;1347;42.122;24.746;2023-02-26T15:25:18;17.47;;;9.57;;
2674;SDS011;1347;42.122;24.746;2023-02-26T15:27:53;22.57;;;9.17;;
2674;SDS011;1347;42.122;24.746;2023-02-26T15:30:21;19.93;;;10.60;;
2674;SDS011;1347;42.122;24.746;2023-02-26T15:32:54;22.60;;;8.37;;
2674;SDS011;1347;42.122;24.746;2023-02-26T15:35:25;20.13;;;9.30;;